Time;durP1;ratioP1;P1;durP2;ratioP2;P2;SDS_P1;SDS_P2;PMS_P1;PMS_P2;Temp;Humidity;BMP_temperature;BMP_pressure;BME280_temperature;BME280_humidity;BME280_pressure;Samples;Min_cycle;Max_cycle;Signal;HPM_P1;HPM_P2
2021/12/25 00:01:19;;;;;;;3.78;2.05;;;;;;;;;;5050961;28;20056;-56
2021/12/25 00:03:45;;;;;;;5.70;3.55;;;;;;;;;;5051333;28;20059;-57
2021/12/25 00:06:10;;;;;;;3.80;2.75;;;;;;;;;;5050806;28;20124;-56
2021/12/25 00:08:36;;;;;;;2.97;2.38;;;;;;;;;;5050515;28;20086;-55
2021/12/25 00:11:04;;;;;;;3.45;2.40;;;;;;;;;;5047246;28;20033;-57
2021/12/25 00:13:30;;;;;;;5.40;2.65;;;;;;;;;;5050663;28;20041;-56
2021/12/25 00:15:55;;;;;;;4.07;2.17;;;;;;;;;;5051427;28;20592;-56
2021/12/25 00:18:20;;;;;;;5.70;2.30;;;;;;;;;;5062145;28;20044;-56
2021/12/25 00:20:46;;;;;;;2.95;2.58;;;;;;;;;;5051458;28;20036;-55
2021/12/25 00:23:11;;;;;;;3.50;2.22;;;;;;;;;;5072403;28;20100;-55
2021/12/25 00:25:42;;;;;;;4.05;2.22;;;;;;;;;;5072931;28;20033;-56
2021/12/25 00:28:37;;;;;;;5.20;3.15;;;;;;;;;;5107013;28;20035;-56
2021/12/25 00:31:21;;;;;;;5.85;3.25;;;;;;;;;;5115004;28;20036;-56
2021/12/25 00:33:55;;;;;;;7.60;2.83;;;;;;;;;;5114912;28;20114;-56
2021/12/25 00:36:21;;;;;;;4.13;2.63;;;;;;;;;;5073187;28;20041;-57
2021/12/25 00:38:47;;;;;;;4.35;3.00;;;;;;;;;;5074123;28;20032;-57
2021/12/25 00:41:13;;;;;;;5.50;2.35;;;;;;;;;;5074589;28;20028;-56
2021/12/25 00:43:39;;;;;;;6.63;3.58;;;;;;;;;;5074441;28;20032;-56
2021/12/25 00:46:04;;;;;;;3.83;2.53;;;;;;;;;;5073767;28;20082;-56
2021/12/25 00:48:29;;;;;;;4.10;3.00;;;;;;;;;;5074025;28;20032;-56
2021/12/25 00:50:55;;;;;;;5.18;3.08;;;;;;;;;;5089458;28;20040;-56
2021/12/25 00:53:20;;;;;;;4.35;3.25;;;;;;;;;;5080890;28;20368;-55
2021/12/25 00:55:46;;;;;;;4.82;2.78;;;;;;;;;;5105875;28;20088;-56
2021/12/25 00:58:11;;;;;;;5.63;2.85;;;;;;;;;;5114167;28;20111;-56
2021/12/25 01:00:36;;;;;;;4.10;2.58;;;;;;;;;;5114061;28;20046;-56
2021/12/25 01:03:02;;;;;;;4.25;2.78;;;;;;;;;;5114539;28;20035;-56
2021/12/25 01:05:27;;;;;;;6.32;3.08;;;;;;;;;;5114323;28;20495;-56
2021/12/25 01:07:52;;;;;;;4.50;2.78;;;;;;;;;;5114540;28;20027;-57
2021/12/25 01:10:19;;;;;;;6.00;3.10;;;;;;;;;;5114050;28;20064;-56
2021/12/25 01:13:08;;;;;;;5.13;2.58;;;;;;;;;;5114291;28;20035;-56
2021/12/25 01:31:43;;;;;;;5.43;2.40;;;;;;;;;;5031016;28;20132;-56
2021/12/25 01:50:11;;;;;;;4.45;2.60;;;;;;;;;;4952617;28;20058;-56
2021/12/25 01:52:37;;;;;;;2.63;1.73;;;;;;;;;;4953316;29;20476;-56
2021/12/25 01:55:07;;;;;;;6.57;2.67;;;;;;;;;;4952469;28;20023;-56
2021/12/25 01:57:32;;;;;;;3.22;1.90;;;;;;;;;;4978268;28;20038;-56
2021/12/25 01:59:58;;;;;;;3.28;1.77;;;;;;;;;;5010825;28;20128;-57
2021/12/25 02:02:24;;;;;;;4.85;2.75;;;;;;;;;;5010714;28;20581;-56
2021/12/25 02:04:49;;;;;;;3.60;2.10;;;;;;;;;;5010878;28;20449;-56
2021/12/25 02:07:14;;;;;;;4.05;2.42;;;;;;;;;;5010709;28;20041;-57
2021/12/25 02:09:40;;;;;;;2.95;1.95;;;;;;;;;;5010691;28;20121;-56
2021/12/25 02:12:06;;;;;;;3.97;1.88;;;;;;;;;;5010998;28;20064;-56
2021/12/25 02:14:32;;;;;;;3.72;2.45;;;;;;;;;;5010660;28;20034;-57
2021/12/25 02:17:13;;;;;;;4.00;2.33;;;;;;;;;;5068651;28;20101;-56
2021/12/25 02:19:46;;;;;;;6.55;2.55;;;;;;;;;;5073042;28;20043;-56
2021/12/25 02:22:12;;;;;;;2.80;1.80;;;;;;;;;;5072626;28;20036;-57
2021/12/25 02:24:37;;;;;;;5.13;2.38;;;;;;;;;;5072769;28;20102;-56
2021/12/25 02:27:03;;;;;;;4.75;2.35;;;;;;;;;;5072220;28;20473;-56
2021/12/25 02:29:29;;;;;;;3.13;1.92;;;;;;;;;;5072021;28;20040;-57
2021/12/25 02:31:55;;;;;;;2.83;2.17;;;;;;;;;;5072914;28;20043;-57
2021/12/25 02:34:20;;;;;;;2.92;1.67;;;;;;;;;;5076622;28;20526;-56
2021/12/25 02:36:45;;;;;;;2.78;2.35;;;;;;;;;;5092340;28;20078;-56
2021/12/25 02:39:10;;;;;;;3.78;1.67;;;;;;;;;;5092347;28;20025;-56
2021/12/25 02:41:36;;;;;;;2.85;1.50;;;;;;;;;;5092582;28;20024;-56
2021/12/25 02:44:01;;;;;;;2.40;1.48;;;;;;;;;;5093313;28;20020;-57
2021/12/25 02:46:26;;;;;;;1.92;1.23;;;;;;;;;;5091951;28;20404;-57
2021/12/25 02:48:55;;;;;;;4.45;2.00;;;;;;;;;;5092501;28;20028;-57
2021/12/25 02:51:20;;;;;;;2.95;1.52;;;;;;;;;;5086469;28;20064;-57
2021/12/25 02:53:45;;;;;;;3.25;1.50;;;;;;;;;;5072082;28;20055;-56
2021/12/25 02:56:11;;;;;;;2.17;1.30;;;;;;;;;;5072016;28;20473;-55
2021/12/25 02:58:36;;;;;;;1.95;1.23;;;;;;;;;;5072119;28;20509;-56
2021/12/25 03:01:04;;;;;;;2.40;1.38;;;;;;;;;;5071951;28;20032;-55
2021/12/25 03:03:29;;;;;;;2.38;1.30;;;;;;;;;;5072331;28;20029;-56
2021/12/25 03:05:54;;;;;;;1.55;1.00;;;;;;;;;;5072188;28;20086;-56
2021/12/25 03:08:20;;;;;;;5.47;1.40;;;;;;;;;;5072070;28;20099;-56
2021/12/25 03:10:47;;;;;;;2.92;1.30;;;;;;;;;;5072480;28;20059;-56
2021/12/25 03:15:45;;;;;;;4.43;1.50;;;;;;;;;;5072635;28;20036;-56
2021/12/25 03:18:11;;;;;;;2.97;1.27;;;;;;;;;;5075138;28;20032;-56
2021/12/25 03:20:40;;;;;;;1.90;1.08;;;;;;;;;;5075347;28;20025;-56
2021/12/25 03:23:05;;;;;;;1.92;0.95;;;;;;;;;;5076107;28;20162;-58
2021/12/25 03:25:30;;;;;;;2.88;0.85;;;;;;;;;;5074063;28;20075;-58
2021/12/25 03:27:57;;;;;;;3.75;1.05;;;;;;;;;;5090354;28;20483;-58
2021/12/25 03:30:24;;;;;;;4.53;1.40;;;;;;;;;;5090932;28;20075;-55
2021/12/25 03:32:49;;;;;;;3.17;0.90;;;;;;;;;;5075607;28;20080;-55
2021/12/25 03:35:15;;;;;;;3.03;1.17;;;;;;;;;;5087349;28;20063;-55
2021/12/25 03:37:40;;;;;;;1.30;0.80;;;;;;;;;;5096240;28;20399;-55
2021/12/25 03:40:06;;;;;;;1.80;0.85;;;;;;;;;;5095383;28;20107;-55
2021/12/25 03:42:31;;;;;;;2.47;1.05;;;;;;;;;;5095444;28;20124;-57
2021/12/25 03:44:56;;;;;;;2.63;1.02;;;;;;;;;;5095526;28;20507;-56
2021/12/25 03:47:33;;;;;;;3.60;1.05;;;;;;;;;;5091374;28;20102;-57
2021/12/25 03:58:27;;;;;;;1.90;0.82;;;;;;;;;;5032757;28;20083;-56
2021/12/25 04:00:59;;;;;;;1.98;1.08;;;;;;;;;;5032622;28;20148;-57
2021/12/25 04:03:39;;;;;;;3.38;1.10;;;;;;;;;;5032961;28;20067;-56
2021/12/25 04:06:09;;;;;;;1.42;0.60;;;;;;;;;;5032578;28;20155;-56
2021/12/25 04:08:41;;;;;;;2.30;0.82;;;;;;;;;;5042005;28;20476;-56
2021/12/25 04:11:12;;;;;;;0.90;0.75;;;;;;;;;;5052790;28;20033;-56
2021/12/25 04:13:37;;;;;;;2.05;0.80;;;;;;;;;;5052611;28;20063;-56
2021/12/25 04:16:03;;;;;;;2.60;0.88;;;;;;;;;;5052358;28;20033;-56
2021/12/25 04:18:28;;;;;;;2.55;0.80;;;;;;;;;;5052062;28;20130;-56
2021/12/25 04:20:53;;;;;;;1.65;0.55;;;;;;;;;;5052326;28;20036;-57
2021/12/25 04:23:24;;;;;;;2.60;0.70;;;;;;;;;;5052298;28;20017;-56
2021/12/25 04:25:49;;;;;;;1.25;0.55;;;;;;;;;;5052312;28;20052;-57
2021/12/25 04:28:22;;;;;;;1.23;0.80;;;;;;;;;;5051299;28;20033;-56
2021/12/25 04:50:08;;;;;;;1.42;0.60;;;;;;;;;;5094646;28;20047;-56
2021/12/25 05:06:33;;;;;;;1.20;0.68;;;;;;;;;;5031261;28;20033;-57
2021/12/25 05:08:58;;;;;;;2.22;0.73;;;;;;;;;;5030955;28;20025;-56
2021/12/25 05:11:23;;;;;;;1.13;0.60;;;;;;;;;;5030885;28;20130;-56
2021/12/25 05:13:50;;;;;;;2.38;0.60;;;;;;;;;;5031650;28;20097;-57
2021/12/25 05:16:19;;;;;;;1.63;0.30;;;;;;;;;;5041554;28;20041;-56
2021/12/25 05:18:44;;;;;;;1.95;0.70;;;;;;;;;;5051082;28;20112;-57
2021/12/25 05:21:09;;;;;;;0.45;0.30;;;;;;;;;;5034445;28;20036;-56
2021/12/25 05:23:35;;;;;;;1.10;0.43;;;;;;;;;;5051188;28;20060;-56
2021/12/25 05:26:04;;;;;;;0.75;0.45;;;;;;;;;;5051399;28;20033;-56
2021/12/25 05:28:38;;;;;;;1.20;0.60;;;;;;;;;;5050749;28;20044;-56
2021/12/25 05:31:04;;;;;;;1.00;0.40;;;;;;;;;;5050798;28;20044;-56
2021/12/25 05:33:29;;;;;;;0.80;0.50;;;;;;;;;;5051144;28;20599;-56
2021/12/25 05:35:54;;;;;;;2.00;0.68;;;;;;;;;;5033265;28;20525;-57
2021/12/25 05:38:19;;;;;;;2.25;0.47;;;;;;;;;;5069819;28;20115;-56
2021/12/25 05:40:46;;;;;;;1.17;0.40;;;;;;;;;;5083606;28;20116;-56
2021/12/25 05:43:11;;;;;;;2.40;0.43;;;;;;;;;;5093223;28;20032;-55
2021/12/25 05:45:36;;;;;;;1.50;0.65;;;;;;;;;;5093111;28;20039;-58
2021/12/25 05:48:02;;;;;;;0.35;0.35;;;;;;;;;;5093111;28;20081;-56
2021/12/25 05:50:27;;;;;;;1.75;0.50;;;;;;;;;;5092663;28;20032;-56
2021/12/25 05:52:55;;;;;;;0.93;0.50;;;;;;;;;;5093600;28;20365;-56
2021/12/25 05:55:21;;;;;;;1.70;0.57;;;;;;;;;;5092862;28;20032;-56
2021/12/25 05:57:46;;;;;;;0.75;0.45;;;;;;;;;;5092822;28;20433;-56
2021/12/25 06:00:11;;;;;;;1.60;0.75;;;;;;;;;;5092879;28;20043;-57
2021/12/25 06:02:36;;;;;;;0.52;0.40;;;;;;;;;;5093088;28;20105;-56
2021/12/25 06:05:04;;;;;;;0.60;0.40;;;;;;;;;;5093457;28;20028;-56
2021/12/25 06:07:29;;;;;;;1.25;0.55;;;;;;;;;;5092781;28;20036;-56
2021/12/25 06:09:54;;;;;;;2.70;0.50;;;;;;;;;;5092794;28;20052;-56
2021/12/25 06:12:20;;;;;;;1.63;0.38;;;;;;;;;;5093026;28;20038;-57
2021/12/25 06:14:47;;;;;;;0.88;0.45;;;;;;;;;;5092921;28;20119;-57
2021/12/25 06:17:12;;;;;;;1.10;0.60;;;;;;;;;;5092832;28;20071;-56
2021/12/25 06:19:37;;;;;;;0.80;0.50;;;;;;;;;;5092941;28;20020;-57
2021/12/25 06:22:02;;;;;;;0.90;0.40;;;;;;;;;;5092666;28;20166;-57
2021/12/25 06:24:29;;;;;;;0.75;0.63;;;;;;;;;;5092774;28;20043;-52
2021/12/25 06:26:54;;;;;;;1.30;0.82;;;;;;;;;;5092398;28;20024;-52
2021/12/25 06:29:20;;;;;;;1.17;0.28;;;;;;;;;;5092555;28;20020;-52
2021/12/25 06:31:46;;;;;;;0.28;0.28;;;;;;;;;;5074603;28;20123;-52
2021/12/25 06:34:11;;;;;;;0.70;0.30;;;;;;;;;;5092649;28;20035;-52
2021/12/25 06:36:36;;;;;;;0.40;0.30;;;;;;;;;;5092580;28;20119;-49
2021/12/25 06:39:02;;;;;;;0.90;0.35;;;;;;;;;;5092557;28;20111;-51
2021/12/25 06:41:28;;;;;;;1.05;0.40;;;;;;;;;;5092172;28;20054;-51
2021/12/25 06:43:53;;;;;;;0.60;0.30;;;;;;;;;;5093248;28;20067;-47
2021/12/25 06:46:19;;;;;;;1.45;0.28;;;;;;;;;;5092506;28;20081;-48
2021/12/25 06:48:44;;;;;;;0.90;0.30;;;;;;;;;;5092438;28;20109;-48
2021/12/25 06:51:09;;;;;;;0.57;0.30;;;;;;;;;;5093751;28;20036;-50
2021/12/25 06:53:35;;;;;;;0.73;0.40;;;;;;;;;;5096776;28;20036;-49
2021/12/25 06:56:00;;;;;;;0.88;0.50;;;;;;;;;;5096699;28;20093;-50
2021/12/25 06:58:25;;;;;;;1.45;0.63;;;;;;;;;;5096212;28;20123;-49
2021/12/25 07:00:51;;;;;;;0.30;0.30;;;;;;;;;;5096051;28;20069;-51
2021/12/25 07:03:16;;;;;;;0.95;0.50;;;;;;;;;;5096611;28;20035;-50
2021/12/25 07:05:41;;;;;;;0.47;0.40;;;;;;;;;;5096435;28;20062;-50
2021/12/25 07:08:07;;;;;;;0.50;0.30;;;;;;;;;;5090460;28;20035;-50
2021/12/25 07:10:32;;;;;;;0.88;0.20;;;;;;;;;;5075437;28;20433;-50
2021/12/25 07:12:57;;;;;;;1.35;0.50;;;;;;;;;;5090376;28;20170;-48
2021/12/25 07:15:22;;;;;;;0.63;0.50;;;;;;;;;;5095968;28;20040;-50
2021/12/25 07:17:48;;;;;;;2.85;0.38;;;;;;;;;;5095912;28;20036;-51
2021/12/25 07:20:13;;;;;;;1.40;0.40;;;;;;;;;;5095572;28;20103;-50
2021/12/25 07:22:38;;;;;;;0.70;0.40;;;;;;;;;;5096336;28;20030;-53
2021/12/25 07:25:04;;;;;;;0.65;0.45;;;;;;;;;;5095881;28;20043;-52
2021/12/25 07:27:29;;;;;;;0.22;0.20;;;;;;;;;;5095232;28;20094;-47
2021/12/25 07:29:55;;;;;;;2.00;0.30;;;;;;;;;;5095665;28;20059;-50
2021/12/25 07:32:20;;;;;;;1.75;0.50;;;;;;;;;;5095579;28;20051;-49
2021/12/25 07:34:49;;;;;;;1.73;0.50;;;;;;;;;;5096178;28;20016;-52
2021/12/25 07:37:14;;;;;;;1.13;0.50;;;;;;;;;;5095541;28;20487;-52
2021/12/25 07:39:40;;;;;;;0.95;0.30;;;;;;;;;;5111149;28;20036;-48
2021/12/25 07:42:06;;;;;;;0.43;0.40;;;;;;;;;;5095191;28;20599;-52
2021/12/25 07:44:31;;;;;;;1.02;0.32;;;;;;;;;;5095420;28;20104;-51
2021/12/25 07:46:56;;;;;;;1.08;0.57;;;;;;;;;;5096192;28;20058;-49
2021/12/25 07:49:22;;;;;;;0.20;0.20;;;;;;;;;;5095267;28;20324;-50
2021/12/25 07:51:47;;;;;;;1.40;0.57;;;;;;;;;;5094919;28;20040;-51
2021/12/25 07:54:12;;;;;;;0.20;0.20;;;;;;;;;;5095318;28;20032;-52
2021/12/25 07:56:38;;;;;;;0.77;0.40;;;;;;;;;;5096509;28;20036;-51
2021/12/25 07:59:03;;;;;;;0.30;0.30;;;;;;;;;;5116047;28;20023;-49
2021/12/25 08:01:31;;;;;;;0.75;0.32;;;;;;;;;;5115581;28;20076;-51
2021/12/25 08:03:56;;;;;;;0.85;0.38;;;;;;;;;;5114644;28;20078;-50
2021/12/25 08:06:21;;;;;;;0.40;0.32;;;;;;;;;;5115446;28;20472;-49
2021/12/25 08:08:49;;;;;;;0.68;0.40;;;;;;;;;;5103741;28;20436;-51
2021/12/25 08:11:14;;;;;;;0.95;0.35;;;;;;;;;;5094355;28;20024;-51
2021/12/25 08:13:39;;;;;;;0.85;0.47;;;;;;;;;;5074960;28;20422;-49
2021/12/25 08:16:05;;;;;;;0.40;0.20;;;;;;;;;;5074591;28;20037;-48
2021/12/25 08:18:31;;;;;;;1.08;0.75;;;;;;;;;;5074327;28;20148;-48
2021/12/25 08:20:57;;;;;;;0.65;0.25;;;;;;;;;;5074355;28;20044;-49
2021/12/25 08:23:22;;;;;;;0.55;0.30;;;;;;;;;;5082072;28;20166;-49
2021/12/25 08:25:47;;;;;;;0.73;0.20;;;;;;;;;;5095126;28;20043;-48
2021/12/25 08:28:13;;;;;;;0.80;0.30;;;;;;;;;;5095016;28;20123;-51
2021/12/25 08:30:38;;;;;;;0.32;0.20;;;;;;;;;;5100541;28;20064;-52
2021/12/25 08:33:03;;;;;;;0.38;0.10;;;;;;;;;;5094257;28;20115;-46
2021/12/25 08:35:29;;;;;;;0.93;0.82;;;;;;;;;;5094865;28;20043;-50
2021/12/25 08:37:54;;;;;;;1.52;0.50;;;;;;;;;;5094879;28;20042;-48
2021/12/25 08:40:20;;;;;;;0.65;0.40;;;;;;;;;;5094144;28;20043;-50
2021/12/25 08:42:51;;;;;;;0.32;0.25;;;;;;;;;;5094298;28;20384;-48
2021/12/25 08:48:02;;;;;;;0.43;0.22;;;;;;;;;;5094587;28;20039;-48
2021/12/25 08:50:27;;;;;;;2.35;0.20;;;;;;;;;;5093916;28;20418;-48
2021/12/25 08:52:53;;;;;;;0.20;0.20;;;;;;;;;;5094480;28;20020;-48
2021/12/25 08:55:18;;;;;;;0.43;0.20;;;;;;;;;;5094007;28;20124;-50
2021/12/25 08:57:43;;;;;;;0.85;0.22;;;;;;;;;;5108874;28;20051;-48
2021/12/25 09:00:09;;;;;;;0.32;0.22;;;;;;;;;;5093615;28;20036;-51
2021/12/25 09:02:35;;;;;;;1.20;0.25;;;;;;;;;;5093736;28;20091;-52
2021/12/25 09:05:00;;;;;;;2.20;0.50;;;;;;;;;;5078115;28;20145;-55
2021/12/25 09:07:25;;;;;;;0.20;0.20;;;;;;;;;;5092549;28;20024;-54
2021/12/25 09:09:51;;;;;;;0.80;0.40;;;;;;;;;;5089703;28;20146;-53
2021/12/25 09:12:17;;;;;;;0.25;0.10;;;;;;;;;;5089350;28;20016;-52
2021/12/25 09:14:43;;;;;;;0.30;0.30;;;;;;;;;;5091226;28;20111;-52
2021/12/25 09:17:09;;;;;;;0.38;0.35;;;;;;;;;;5091861;28;20109;-54
2021/12/25 09:19:35;;;;;;;0.63;0.20;;;;;;;;;;5091282;28;20044;-54
2021/12/25 09:22:00;;;;;;;2.58;0.40;;;;;;;;;;5090982;28;20518;-53
2021/12/25 09:24:25;;;;;;;1.52;0.20;;;;;;;;;;5092319;28;20028;-53
2021/12/25 09:26:51;;;;;;;0.98;0.20;;;;;;;;;;5084268;28;20033;-55
2021/12/25 09:29:16;;;;;;;0.77;0.30;;;;;;;;;;5096522;28;20146;-52
2021/12/25 09:31:41;;;;;;;0.20;0.20;;;;;;;;;;5092566;28;20030;-52
2021/12/25 09:34:06;;;;;;;8.70;0.50;;;;;;;;;;5093531;28;20143;-53
2021/12/25 09:36:32;;;;;;;7.10;2.33;;;;;;;;;;5101256;28;20051;-53
2021/12/25 09:38:57;;;;;;;9.27;2.13;;;;;;;;;;5092658;28;20032;-58
2021/12/25 09:41:23;;;;;;;6.20;1.73;;;;;;;;;;5099958;28;20114;-55
2021/12/25 09:43:49;;;;;;;4.60;1.70;;;;;;;;;;5114018;28;20019;-57
2021/12/25 09:46:15;;;;;;;5.55;1.40;;;;;;;;;;5106925;28;20055;-56
2021/12/25 09:48:40;;;;;;;4.88;1.25;;;;;;;;;;5093109;28;20039;-55
2021/12/25 09:51:06;;;;;;;5.55;1.67;;;;;;;;;;5092847;28;20052;-57
2021/12/25 09:53:32;;;;;;;8.95;1.02;;;;;;;;;;5093036;28;20380;-55
2021/12/25 09:55:57;;;;;;;5.88;1.30;;;;;;;;;;5093553;28;20028;-54
2021/12/25 09:58:23;;;;;;;4.82;1.05;;;;;;;;;;5092303;28;20479;-56
2021/12/25 10:00:51;;;;;;;3.45;0.93;;;;;;;;;;5092804;28;20377;-56
2021/12/25 10:03:17;;;;;;;7.57;1.80;;;;;;;;;;5085265;28;20024;-57
2021/12/25 10:05:44;;;;;;;4.68;1.20;;;;;;;;;;5072407;28;20028;-56
2021/12/25 10:08:12;;;;;;;3.92;0.70;;;;;;;;;;5082191;28;20020;-55
2021/12/25 10:10:45;;;;;;;3.55;1.58;;;;;;;;;;5102873;28;20044;-56
2021/12/25 10:13:20;;;;;;;1.35;0.85;;;;;;;;;;5111143;28;20603;-56
2021/12/25 10:15:45;;;;;;;2.05;0.70;;;;;;;;;;5104979;28;20032;-57
2021/12/25 10:18:10;;;;;;;4.75;1.00;;;;;;;;;;5100874;28;20476;-56
2021/12/25 10:20:36;;;;;;;4.80;1.67;;;;;;;;;;5101595;28;20030;-56
2021/12/25 10:23:06;;;;;;;1.55;1.00;;;;;;;;;;5104908;28;20043;-56
2021/12/25 10:25:38;;;;;;;1.77;0.80;;;;;;;;;;5096152;28;20496;-56
2021/12/25 10:28:09;;;;;;;2.25;0.65;;;;;;;;;;5102936;28;20048;-56
2021/12/25 10:30:34;;;;;;;;;;;;;;;;;;5096934;28;20028;-55
2021/12/25 10:32:59;;;;;;;3.90;1.17;;;;;;;;;;5108303;28;19912;-56
2021/12/25 10:35:26;;;;;;;6.47;2.25;;;;;;;;;;5092656;28;20499;-57
2021/12/25 10:37:51;;;;;;;6.28;2.03;;;;;;;;;;5093127;28;20028;-57
2021/12/25 10:40:18;;;;;;;3.92;1.90;;;;;;;;;;5092438;28;20035;-57
2021/12/25 10:42:45;;;;;;;8.75;1.73;;;;;;;;;;5092365;28;20070;-56
2021/12/25 10:45:13;;;;;;;5.85;1.80;;;;;;;;;;5092834;28;20032;-57
2021/12/25 10:47:38;;;;;;;5.93;1.90;;;;;;;;;;5092384;28;20036;-57
2021/12/25 10:50:14;;;;;;;3.40;1.50;;;;;;;;;;5092883;28;20368;-57
2021/12/25 10:52:43;;;;;;;4.28;1.83;;;;;;;;;;5092271;28;20491;-57
2021/12/25 10:55:17;;;;;;;5.53;1.48;;;;;;;;;;5092496;28;20086;-57
2021/12/25 10:57:49;;;;;;;1.73;1.27;;;;;;;;;;5092384;28;20078;-56
2021/12/25 11:00:20;;;;;;;14.30;4.13;;;;;;;;;;5090173;28;20042;-57
2021/12/25 11:02:46;;;;;;;34.08;13.48;;;;;;;;;;5071768;28;20032;-58
2021/12/25 11:05:22;;;;;;;55.10;23.40;;;;;;;;;;5076576;28;20024;-57
2021/12/25 11:08:00;;;;;;;50.20;19.30;;;;;;;;;;5095234;28;20024;-54
2021/12/25 11:10:25;;;;;;;52.60;21.70;;;;;;;;;;5091842;28;20090;-58
2021/12/25 11:12:51;;;;;;;50.35;20.40;;;;;;;;;;5097995;28;20027;-57
2021/12/25 11:15:20;;;;;;;39.85;15.73;;;;;;;;;;5098974;28;20511;-57
2021/12/25 11:18:05;;;;;;;45.57;16.67;;;;;;;;;;5101825;28;20108;-58
2021/12/25 11:20:32;;;;;;;43.55;17.48;;;;;;;;;;5100867;28;20107;-58
2021/12/25 11:22:59;;;;;;;34.90;15.00;;;;;;;;;;5100658;28;20011;-53
2021/12/25 11:25:26;;;;;;;28.70;13.50;;;;;;;;;;5102063;28;20391;-59
2021/12/25 11:27:52;;;;;;;34.75;13.80;;;;;;;;;;5100767;28;20492;-56
2021/12/25 11:30:20;;;;;;;29.75;11.55;;;;;;;;;;5098165;28;20028;-58
2021/12/25 11:32:46;;;;;;;33.15;12.90;;;;;;;;;;5101954;28;20028;-57
2021/12/25 11:35:11;;;;;;;31.63;13.57;;;;;;;;;;5083639;28;20032;-57
2021/12/25 11:37:37;;;;;;;22.92;10.32;;;;;;;;;;5102071;28;20027;-54
2021/12/25 11:40:02;;;;;;;27.42;11.00;;;;;;;;;;5104063;28;20392;-57
2021/12/25 11:42:29;;;;;;;27.38;10.10;;;;;;;;;;5103898;28;20038;-58
2021/12/25 11:44:55;;;;;;;30.48;10.02;;;;;;;;;;5111663;28;20048;-59
2021/12/25 11:47:37;;;;;;;23.52;9.63;;;;;;;;;;5105703;28;20059;-59
2021/12/25 11:50:23;;;;;;;25.45;8.73;;;;;;;;;;5104921;28;20028;-59
2021/12/25 11:53:11;;;;;;;22.67;9.45;;;;;;;;;;5097355;28;20093;-58
2021/12/25 11:58:35;;;;;;;21.27;7.65;;;;;;;;;;5100534;28;20032;-56
2021/12/25 12:01:14;;;;;;;18.10;6.93;;;;;;;;;;5088517;28;20467;-58
2021/12/25 12:03:48;;;;;;;21.30;7.15;;;;;;;;;;5097817;28;20392;-57
2021/12/25 12:06:15;;;;;;;21.35;7.50;;;;;;;;;;5096920;28;20028;-57
2021/12/25 12:08:52;;;;;;;17.55;6.07;;;;;;;;;;5103360;28;20055;-57
2021/12/25 12:11:22;;;;;;;18.25;6.40;;;;;;;;;;5103196;28;20028;-57
2021/12/25 12:13:47;;;;;;;15.43;6.17;;;;;;;;;;5083506;28;20472;-56
2021/12/25 12:16:13;;;;;;;13.55;6.05;;;;;;;;;;5102088;28;20043;-57
2021/12/25 12:18:39;;;;;;;14.98;5.97;;;;;;;;;;5108575;28;20105;-57
2021/12/25 12:21:16;;;;;;;12.10;5.50;;;;;;;;;;5109735;28;20106;-56
2021/12/25 12:26:13;;;;;;;8.85;4.18;;;;;;;;;;5095109;28;20073;-56
2021/12/25 12:28:56;;;;;;;11.15;4.85;;;;;;;;;;5098107;28;20058;-56
2021/12/25 12:31:34;;;;;;;10.93;4.13;;;;;;;;;;5096052;28;20510;-54
2021/12/25 12:33:59;;;;;;;9.07;4.03;;;;;;;;;;5093015;28;20086;-58
2021/12/25 12:36:25;;;;;;;13.35;4.63;;;;;;;;;;5101635;28;20379;-59
2021/12/25 12:38:55;;;;;;;9.20;3.63;;;;;;;;;;5097352;28;20035;-58
2021/12/25 12:41:33;;;;;;;6.95;3.25;;;;;;;;;;5103721;28;20032;-57
2021/12/25 12:43:59;;;;;;;9.18;3.60;;;;;;;;;;5101353;28;20025;-59
2021/12/25 12:46:45;;;;;;;8.77;3.63;;;;;;;;;;5095007;28;20081;-58
2021/12/25 12:49:10;;;;;;;6.38;3.28;;;;;;;;;;5093873;28;20062;-58
2021/12/25 12:51:35;;;;;;;7.80;2.97;;;;;;;;;;5095411;28;20060;-59
2021/12/25 12:54:03;;;;;;;5.25;2.88;;;;;;;;;;5102673;28;20085;-59
2021/12/25 12:56:28;;;;;;;6.95;2.45;;;;;;;;;;5098136;28;20066;-58
2021/12/25 12:58:55;;;;;;;5.35;1.90;;;;;;;;;;5100197;28;20055;-54
2021/12/25 13:01:22;;;;;;;5.18;2.38;;;;;;;;;;5101770;28;20024;-55
2021/12/25 13:03:47;;;;;;;6.80;2.53;;;;;;;;;;5105178;28;20036;-55
2021/12/25 13:06:15;;;;;;;26.13;6.38;;;;;;;;;;5101939;28;20033;-56
2021/12/25 13:08:42;;;;;;;19.52;5.60;;;;;;;;;;5103517;28;20023;-54
2021/12/25 13:11:13;;;;;;;16.35;4.10;;;;;;;;;;5101181;28;20023;-54
2021/12/25 13:13:46;;;;;;;12.80;3.58;;;;;;;;;;5084902;28;20056;-55
2021/12/25 13:16:13;;;;;;;15.95;4.43;;;;;;;;;;5102677;28;20031;-56
2021/12/25 13:18:40;;;;;;;15.43;4.20;;;;;;;;;;5110440;28;20035;-55
2021/12/25 13:21:08;;;;;;;13.93;4.97;;;;;;;;;;5094524;28;20054;-55
2021/12/25 13:23:46;;;;;;;14.25;2.88;;;;;;;;;;5090612;28;20020;-54
2021/12/25 13:26:14;;;;;;;8.07;2.80;;;;;;;;;;5090518;28;20115;-55
2021/12/25 13:28:40;;;;;;;15.75;4.22;;;;;;;;;;5090400;28;20032;-53
2021/12/25 13:31:07;;;;;;;10.57;2.97;;;;;;;;;;5089672;28;20400;-53
2021/12/25 13:33:34;;;;;;;10.35;4.15;;;;;;;;;;5090149;28;20480;-57
2021/12/25 13:36:02;;;;;;;9.27;3.22;;;;;;;;;;5104281;28;20056;-54
2021/12/25 13:38:28;;;;;;;10.32;2.38;;;;;;;;;;5089757;28;20365;-55
2021/12/25 13:40:55;;;;;;;11.38;2.75;;;;;;;;;;5089381;28;20034;-55
2021/12/25 13:43:20;;;;;;;4.32;1.70;;;;;;;;;;5089364;28;20061;-55
2021/12/25 13:45:45;;;;;;;7.70;2.65;;;;;;;;;;5089119;28;20040;-56
2021/12/25 13:48:10;;;;;;;10.70;3.10;;;;;;;;;;5090212;28;20036;-54
2021/12/25 13:50:36;;;;;;;9.63;2.40;;;;;;;;;;5073325;28;20496;-54
2021/12/25 13:53:06;;;;;;;7.18;1.95;;;;;;;;;;5069854;28;20141;-53
2021/12/25 13:55:32;;;;;;;9.25;2.38;;;;;;;;;;5069312;28;20047;-55
2021/12/25 13:58:00;;;;;;;6.78;1.83;;;;;;;;;;5069108;28;20043;-54
2021/12/25 14:00:28;;;;;;;7.47;1.75;;;;;;;;;;5073903;28;20438;-55
2021/12/25 14:02:58;;;;;;;8.45;1.77;;;;;;;;;;5089664;28;20032;-54
2021/12/25 14:05:25;;;;;;;4.20;1.60;;;;;;;;;;5071188;28;20028;-55
2021/12/25 14:07:51;;;;;;;9.20;1.95;;;;;;;;;;5085954;28;20009;-55
2021/12/25 14:10:26;;;;;;;3.40;1.35;;;;;;;;;;5069359;28;20110;-55
2021/12/25 14:12:53;;;;;;;3.97;1.52;;;;;;;;;;5069444;28;20024;-54
2021/12/25 14:15:20;;;;;;;5.60;1.58;;;;;;;;;;5068707;28;20044;-55
2021/12/25 14:17:46;;;;;;;6.25;1.52;;;;;;;;;;5051072;28;20404;-55
2021/12/25 14:20:11;;;;;;;4.80;1.40;;;;;;;;;;5070813;28;20028;-55
2021/12/25 14:22:37;;;;;;;5.57;1.50;;;;;;;;;;5083918;28;20077;-55
2021/12/25 14:25:02;;;;;;;3.63;0.88;;;;;;;;;;5089003;28;20444;-54
2021/12/25 14:27:28;;;;;;;2.72;1.00;;;;;;;;;;5099254;28;20441;-53
2021/12/25 14:30:02;;;;;;;6.38;1.58;;;;;;;;;;5082146;28;20233;-56
2021/12/25 14:32:28;;;;;;;6.40;1.30;;;;;;;;;;5090669;28;20506;-55
2021/12/25 14:34:55;;;;;;;2.53;1.20;;;;;;;;;;5091844;28;20027;-54
2021/12/25 14:37:30;;;;;;;5.72;1.10;;;;;;;;;;5107055;28;20035;-55
2021/12/25 14:40:10;;;;;;;3.35;1.08;;;;;;;;;;5085411;28;20027;-55
2021/12/25 14:42:43;;;;;;;3.03;1.08;;;;;;;;;;5109641;28;20108;-54
2021/12/25 14:45:09;;;;;;;2.42;1.10;;;;;;;;;;5108876;28;20043;-57
2021/12/25 14:47:44;;;;;;;1.77;0.75;;;;;;;;;;5109387;28;20103;-57
2021/12/25 14:50:13;;;;;;;4.43;0.98;;;;;;;;;;5109414;28;20031;-55
2021/12/25 14:52:39;;;;;;;2.08;0.82;;;;;;;;;;5110178;28;20019;-57
2021/12/25 14:55:16;;;;;;;2.50;0.80;;;;;;;;;;5109082;28;20395;-56
2021/12/25 14:57:42;;;;;;;4.10;0.80;;;;;;;;;;5096313;28;20519;-57
2021/12/25 15:00:07;;;;;;;2.10;0.85;;;;;;;;;;5088693;28;20041;-54
2021/12/25 15:02:33;;;;;;;2.15;0.98;;;;;;;;;;5089089;28;20032;-56
2021/12/25 15:04:58;;;;;;;1.60;0.57;;;;;;;;;;5089028;28;20032;-55
2021/12/25 15:07:24;;;;;;;2.50;0.75;;;;;;;;;;5088854;28;20040;-56
2021/12/25 15:09:51;;;;;;;3.35;1.25;;;;;;;;;;5088705;28;20032;-55
2021/12/25 15:12:26;;;;;;;3.35;1.13;;;;;;;;;;5090271;28;20384;-55
2021/12/25 15:15:09;;;;;;;1.65;0.73;;;;;;;;;;5092434;28;20452;-56
2021/12/25 15:17:34;;;;;;;1.35;0.63;;;;;;;;;;5092330;28;20032;-55
2021/12/25 15:20:03;;;;;;;4.50;1.33;;;;;;;;;;5093511;28;20047;-56
2021/12/25 15:22:28;;;;;;;2.28;0.90;;;;;;;;;;5092788;28;20032;-54
2021/12/25 15:24:56;;;;;;;1.42;0.68;;;;;;;;;;5090772;28;20100;-56
2021/12/25 15:27:24;;;;;;;1.77;0.60;;;;;;;;;;5092226;28;20484;-55
2021/12/25 15:29:50;;;;;;;1.60;0.63;;;;;;;;;;5092595;28;20040;-55
2021/12/25 15:32:16;;;;;;;1.48;0.43;;;;;;;;;;5093102;28;20412;-53
2021/12/25 15:34:48;;;;;;;1.08;0.80;;;;;;;;;;5090630;28;20023;-55
2021/12/25 15:37:25;;;;;;;2.65;0.82;;;;;;;;;;5089341;28;20113;-55
2021/12/25 15:39:52;;;;;;;3.80;1.13;;;;;;;;;;5090008;28;20519;-56
2021/12/25 15:42:18;;;;;;;1.27;0.82;;;;;;;;;;5090064;28;20760;-55
2021/12/25 15:44:43;;;;;;;1.13;0.70;;;;;;;;;;5089857;28;20067;-54
2021/12/25 15:47:09;;;;;;;0.85;0.50;;;;;;;;;;5087197;28;20062;-55
2021/12/25 15:49:35;;;;;;;1.20;0.52;;;;;;;;;;5086711;28;20051;-57
2021/12/25 15:52:02;;;;;;;1.10;0.60;;;;;;;;;;5086611;28;20040;-56
2021/12/25 15:54:28;;;;;;;3.88;0.90;;;;;;;;;;5085357;28;20089;-54
2021/12/25 15:56:58;;;;;;;2.50;0.82;;;;;;;;;;5090193;28;20428;-55
2021/12/25 15:59:28;;;;;;;2.72;0.60;;;;;;;;;;5090153;28;20036;-55
2021/12/25 16:01:53;;;;;;;1.70;0.88;;;;;;;;;;5086937;28;20042;-53
2021/12/25 16:04:19;;;;;;;2.03;0.73;;;;;;;;;;5086156;28;20060;-54
2021/12/25 16:06:44;;;;;;;4.78;0.85;;;;;;;;;;5084505;28;20476;-54